Aviston, Illinois
Current Conditions -  °F | °C
As of 12:58 PM on Tuesday 21 Oct 2014 (Local Time) from KBLV Reporting Station
Clear Clear  
Wind Chill: 66°   Ceiling: Unl
Heat Index: 66°   Visibility: 10mi
Dew Point: 47°   Wind: 9mph
Humidity: 50%   Direction: 360°N
Pressure: 30.12"   Gusts: NA
Location:  38.61°N, 89.61°W
Report Text: KBLV 211758Z AUTO 36008KT 10SM CLR 19/08 A3012 RMK AO2 SLP202 T01870082 10189 20068 58001
Loading
Personal Weather Stations






























Interactive Weather Map New forecast layout! Learn more

10-Day Weather Forecast

Advertisements
Track Severe Weather on mobile